createdAt,value
2022-12-06T00:01:41.380Z,94710.22
2022-12-06T00:04:11.817Z,94707.69
2022-12-06T00:06:44.605Z,94703.19
2022-12-06T00:09:23.791Z,94703.72
2022-12-06T00:11:51.267Z,94698.59
2022-12-06T00:14:18.854Z,94704.00
2022-12-06T00:16:46.634Z,94698.13
2022-12-06T00:19:16.162Z,94700.91
2022-12-06T00:21:43.624Z,94693.41
2022-12-06T00:24:15.906Z,94703.03
2022-12-06T00:26:45.413Z,94704.34
2022-12-06T00:29:14.681Z,94699.03
2022-12-06T00:31:41.637Z,94704.22
2022-12-06T00:34:08.347Z,94702.66
2022-12-06T00:36:38.203Z,94708.69
2022-12-06T00:39:10.958Z,94709.81
2022-12-06T00:41:37.859Z,94699.94
2022-12-06T00:44:04.702Z,94698.06
2022-12-06T00:46:33.132Z,94704.22
2022-12-06T00:49:03.393Z,94695.94
2022-12-06T00:51:32.241Z,94696.47
2022-12-06T00:54:00.477Z,94693.78
2022-12-06T00:56:27.510Z,94684.22
2022-12-06T00:58:54.646Z,94686.06
2022-12-06T01:01:24.316Z,94683.88
2022-12-06T01:03:53.898Z,94684.13
2022-12-06T01:06:27.466Z,94685.44
2022-12-06T01:08:58.854Z,94685.22
2022-12-06T01:11:26.052Z,94680.69
2022-12-06T01:13:53.491Z,94678.34
2022-12-06T01:16:23.189Z,94680.09
2022-12-06T01:18:53.801Z,94679.34
2022-12-06T01:21:21.949Z,94673.16
2022-12-06T01:23:49.371Z,94669.66
2022-12-06T01:26:21.458Z,94670.41
2022-12-06T01:28:48.338Z,94667.41
2022-12-06T01:31:15.446Z,94668.22
2022-12-06T01:33:43.388Z,94664.56
2022-12-06T01:36:16.537Z,94667.16
2022-12-06T01:38:43.150Z,94657.03
2022-12-06T01:41:10.280Z,94656.38
2022-12-06T01:43:39.701Z,94654.41
2022-12-06T01:46:09.364Z,94659.88
2022-12-06T01:48:37.678Z,94661.56
2022-12-06T01:51:07.832Z,94663.44
2022-12-06T01:53:35.827Z,94653.31
2022-12-06T01:56:03.605Z,94659.22
2022-12-06T01:58:34.392Z,94647.41
2022-12-06T02:01:02.186Z,94645.88
2022-12-06T02:03:32.240Z,94646.22
2022-12-06T02:06:00.684Z,94640.66
2022-12-06T02:08:28.092Z,94652.28
2022-12-06T02:10:54.942Z,94640.84
2022-12-06T02:13:23.056Z,94642.50
2022-12-06T02:16:18.076Z,94634.00
2022-12-06T02:19:00.669Z,94632.69
2022-12-06T02:21:34.943Z,94629.38
2022-12-06T02:24:33.314Z,94636.91
2022-12-06T02:27:22.702Z,94628.00
2022-12-06T02:30:25.190Z,94634.50
2022-12-06T02:32:59.185Z,94634.59
2022-12-06T02:35:37.550Z,94632.94
2022-12-06T02:38:32.242Z,94631.41
2022-12-06T02:41:03.842Z,94623.38
2022-12-06T02:43:43.704Z,94612.72
2022-12-06T02:46:13.421Z,94615.50
2022-12-06T02:48:42.102Z,94622.56
2022-12-06T02:51:14.040Z,94613.81
2022-12-06T02:53:47.387Z,94612.84
2022-12-06T02:56:17.063Z,94613.00
2022-12-06T02:58:43.785Z,94611.25
2022-12-06T03:01:20.779Z,94607.22
2022-12-06T03:04:46.630Z,94613.59
2022-12-06T03:07:46.716Z,94616.00
2022-12-06T03:10:47.128Z,94616.31
2022-12-06T03:13:33.212Z,94614.09
2022-12-06T03:16:16.920Z,94609.81
2022-12-06T03:19:14.330Z,94608.03
2022-12-06T03:21:47.018Z,94611.53
2022-12-06T03:24:15.938Z,94612.84
2022-12-06T03:26:46.983Z,94601.34
2022-12-06T03:29:17.399Z,94611.06
2022-12-06T03:31:46.258Z,94607.53
2022-12-06T03:34:18.787Z,94599.03
2022-12-06T03:36:48.796Z,94592.78
2022-12-06T03:39:24.083Z,94600.31
2022-12-06T03:41:55.822Z,94595.09
2022-12-06T03:44:23.458Z,94590.91
2022-12-06T03:46:57.697Z,94596.19
2022-12-06T03:49:41.005Z,94584.88
2022-12-06T03:52:09.032Z,94585.44
2022-12-06T03:54:38.401Z,94595.53
2022-12-06T03:57:05.171Z,94592.53
2022-12-06T03:59:31.833Z,94586.88
2022-12-06T04:01:58.615Z,94588.72
2022-12-06T04:04:25.432Z,94577.63
2022-12-06T04:06:52.879Z,94583.22
2022-12-06T04:09:38.708Z,94586.66
2022-12-06T04:12:25.875Z,94586.00
2022-12-06T04:14:52.721Z,94591.25
2022-12-06T04:17:38.013Z,94596.53
2022-12-06T04:20:05.948Z,94592.44
2022-12-06T04:22:51.110Z,94592.44
2022-12-06T04:25:17.854Z,94594.72
2022-12-06T04:28:03.089Z,94593.63
2022-12-06T04:30:48.410Z,94597.09
2022-12-06T04:33:33.776Z,94583.66
2022-12-06T04:36:18.543Z,94587.31
2022-12-06T04:38:45.155Z,94585.09
2022-12-06T04:41:32.866Z,94585.69
2022-12-06T04:44:01.763Z,94579.06
2022-12-06T04:46:28.561Z,94578.16
2022-12-06T04:48:55.362Z,94589.53
2022-12-06T04:51:23.079Z,94588.03
2022-12-06T04:53:49.946Z,94588.09
2022-12-06T04:56:17.105Z,94589.78
2022-12-06T04:58:44.447Z,94591.22
2022-12-06T05:01:11.432Z,94594.34
2022-12-06T05:03:43.956Z,94593.09
2022-12-06T05:06:11.478Z,94589.16
2022-12-06T05:08:38.279Z,94591.41
2022-12-06T05:11:05.183Z,94595.03
2022-12-06T05:13:31.831Z,94580.06
2022-12-06T05:16:01.306Z,94586.63
2022-12-06T05:18:28.869Z,94584.00
2022-12-06T05:21:08.883Z,94582.88
2022-12-06T05:23:36.280Z,94577.75
2022-12-06T05:26:06.827Z,94587.44
2022-12-06T05:28:34.003Z,94592.97
2022-12-06T05:31:01.087Z,94588.84
2022-12-06T05:33:28.384Z,94591.22
2022-12-06T05:35:55.384Z,94584.69
2022-12-06T05:38:22.216Z,94584.38
2022-12-06T05:40:49.136Z,94590.16
2022-12-06T05:43:16.593Z,94589.66
2022-12-06T05:45:43.654Z,94598.03
2022-12-06T05:48:10.301Z,94588.13
2022-12-06T05:50:37.067Z,94578.50
2022-12-06T05:53:04.066Z,94575.88
2022-12-06T05:55:30.823Z,94566.91
2022-12-06T05:57:57.469Z,94575.22
2022-12-06T06:00:24.200Z,94584.50
2022-12-06T06:02:51.067Z,94578.22
2022-12-06T06:05:17.886Z,94577.53
2022-12-06T06:07:44.572Z,94568.44
2022-12-06T06:10:11.445Z,94574.28
2022-12-06T06:12:38.115Z,94576.13
2022-12-06T06:15:07.316Z,94574.53
2022-12-06T06:17:37.630Z,94575.47
2022-12-06T06:20:05.798Z,94580.59
2022-12-06T06:22:36.501Z,94588.88
2022-12-06T06:25:04.192Z,94596.56
2022-12-06T06:27:37.143Z,94592.19
2022-12-06T06:30:08.750Z,94589.34
2022-12-06T06:32:36.060Z,94593.94
2022-12-06T06:35:03.569Z,94592.66
2022-12-06T06:37:30.460Z,94579.94
2022-12-06T06:39:57.101Z,94580.19
2022-12-06T06:42:23.845Z,94581.22
2022-12-06T06:44:50.536Z,94574.75
2022-12-06T06:47:17.328Z,94580.97
2022-12-06T06:49:43.972Z,94578.63
2022-12-06T06:52:10.595Z,94582.97
2022-12-06T06:54:37.733Z,94576.47
2022-12-06T06:57:04.604Z,94574.06
2022-12-06T06:59:31.202Z,94574.00
2022-12-06T07:01:58.017Z,94568.75
2022-12-06T07:04:24.719Z,94569.25
2022-12-06T07:06:51.319Z,94573.22
2022-12-06T07:09:17.989Z,94571.31
2022-12-06T07:11:44.681Z,94579.25
2022-12-06T07:14:11.370Z,94566.47
2022-12-06T07:16:38.066Z,94570.94
2022-12-06T07:19:09.041Z,94567.59
2022-12-06T07:21:36.124Z,94575.75
2022-12-06T07:24:03.827Z,94576.00
2022-12-06T07:26:30.581Z,94571.41
2022-12-06T07:28:57.915Z,94575.09
2022-12-06T07:31:27.074Z,94576.19
2022-12-06T07:33:56.211Z,94568.28
2022-12-06T07:36:23.489Z,94573.22
2022-12-06T07:38:52.598Z,94571.50
2022-12-06T07:41:39.745Z,94563.28
2022-12-06T07:44:25.143Z,94564.47
2022-12-06T07:46:51.737Z,94568.91
2022-12-06T07:49:19.783Z,94561.94
2022-12-06T07:51:46.797Z,94559.47
2022-12-06T07:54:14.273Z,94576.81
2022-12-06T07:56:42.488Z,94577.41
2022-12-06T07:59:09.177Z,94574.34
2022-12-06T08:01:36.395Z,94573.81
2022-12-06T08:04:04.966Z,94575.16
2022-12-06T08:06:33.277Z,94568.25
2022-12-06T08:08:59.995Z,94578.69
2022-12-06T08:11:27.046Z,94576.38
2022-12-06T08:13:53.649Z,94571.38
2022-12-06T08:16:20.292Z,94570.63
2022-12-06T08:18:47.330Z,94558.53
2022-12-06T08:21:14.214Z,94560.66
2022-12-06T08:23:40.821Z,94559.72
2022-12-06T08:26:10.264Z,94554.94
2022-12-06T08:28:38.186Z,94567.22
2022-12-06T08:31:13.619Z,94555.28
2022-12-06T08:33:40.799Z,94562.03
2022-12-06T08:36:12.938Z,94564.16
2022-12-06T08:38:40.115Z,94561.28
2022-12-06T08:41:31.312Z,94560.66
2022-12-06T08:44:00.320Z,94557.16
2022-12-06T08:46:28.073Z,94566.25
2022-12-06T08:48:54.738Z,94563.78
2022-12-06T08:51:21.800Z,94561.78
2022-12-06T08:53:48.357Z,94566.00
2022-12-06T08:56:15.382Z,94557.56
2022-12-06T08:58:41.963Z,94559.19
2022-12-06T09:01:18.175Z,94567.16
2022-12-06T09:03:44.850Z,94555.91
2022-12-06T09:06:12.136Z,94553.38
2022-12-06T09:08:38.973Z,94548.06
2022-12-06T09:11:07.402Z,94534.19
2022-12-06T09:13:35.782Z,94527.56
2022-12-06T09:16:10.822Z,94525.75
2022-12-06T09:18:37.952Z,94516.63
2022-12-06T09:21:06.335Z,94517.63
2022-12-06T09:23:34.853Z,94504.47
2022-12-06T09:26:02.342Z,94516.59
2022-12-06T09:28:29.550Z,94509.94
2022-12-06T09:30:56.942Z,94500.19
2022-12-06T09:33:24.581Z,94484.41
2022-12-06T09:35:51.872Z,94476.00
2022-12-06T09:38:21.511Z,94475.88
2022-12-06T09:40:59.291Z,94465.22
2022-12-06T09:43:48.102Z,94461.19
2022-12-06T09:46:39.353Z,94463.59
2022-12-06T09:49:45.764Z,94458.88
2022-12-06T09:52:32.504Z,94453.25
2022-12-06T09:55:07.952Z,94458.06
2022-12-06T09:57:51.872Z,94453.75
2022-12-06T10:00:23.177Z,94447.91
2022-12-06T10:03:02.375Z,94447.91
2022-12-06T10:05:52.223Z,94434.66
2022-12-06T10:08:39.215Z,94427.78
2022-12-06T10:11:17.760Z,94430.63
2022-12-06T10:14:04.138Z,94426.28
2022-12-06T10:16:36.628Z,94411.25
2022-12-06T10:19:12.156Z,94404.47
2022-12-06T10:21:45.944Z,94400.16
2022-12-06T10:24:37.171Z,94402.94
2022-12-06T10:27:37.301Z,94394.81
2022-12-06T10:30:11.087Z,94399.50
2022-12-06T10:32:54.272Z,94401.75
2022-12-06T10:35:43.445Z,94394.22
2022-12-06T10:38:30.922Z,94398.66
2022-12-06T10:41:21.362Z,94398.38
2022-12-06T10:44:18.183Z,94395.13
2022-12-06T10:47:06.566Z,94402.81
2022-12-06T10:49:39.375Z,94398.16
2022-12-06T10:52:36.349Z,94396.41
2022-12-06T10:55:18.356Z,94389.25
2022-12-06T10:57:50.268Z,94379.47
2022-12-06T11:00:23.551Z,94371.16
2022-12-06T11:02:56.212Z,94370.75
2022-12-06T11:05:34.611Z,94361.53
2022-12-06T11:08:06.524Z,94363.00
2022-12-06T11:10:34.828Z,94358.09
2022-12-06T11:13:29.995Z,94362.44
2022-12-06T11:16:08.040Z,94346.16
2022-12-06T11:18:35.085Z,94341.47
2022-12-06T11:21:10.553Z,94343.44
2022-12-06T11:24:11.063Z,94346.63
2022-12-06T11:26:53.310Z,94332.66
2022-12-06T11:29:20.160Z,94332.31
2022-12-06T11:31:57.630Z,94331.53
2022-12-06T11:34:33.089Z,94323.53
2022-12-06T11:37:02.571Z,94330.09
2022-12-06T11:39:31.357Z,94335.88
2022-12-06T11:42:02.429Z,94338.72
2022-12-06T11:44:49.544Z,94337.66
2022-12-06T11:47:21.926Z,94329.19
2022-12-06T11:49:51.654Z,94331.13
2022-12-06T11:52:19.901Z,94321.03
2022-12-06T11:54:57.904Z,94321.56
2022-12-06T11:57:38.822Z,94312.59
2022-12-06T12:00:20.655Z,94319.19
2022-12-06T12:02:50.216Z,94313.44
2022-12-06T12:05:16.795Z,94313.38
2022-12-06T12:07:47.112Z,94308.13
2022-12-06T12:10:29.538Z,94308.81
2022-12-06T12:13:15.241Z,94309.97
2022-12-06T12:15:52.935Z,94300.69
2022-12-06T12:18:25.233Z,94304.22
2022-12-06T12:20:53.507Z,94293.16
2022-12-06T12:23:27.272Z,94293.09
2022-12-06T12:26:12.467Z,94288.16
2022-12-06T12:28:40.762Z,94284.97
2022-12-06T12:31:24.725Z,94277.38
2022-12-06T12:34:12.772Z,94266.72
2022-12-06T12:36:39.366Z,94272.41
2022-12-06T12:39:41.578Z,94265.94
2022-12-06T12:42:33.033Z,94260.47
2022-12-06T12:45:03.305Z,94263.25
2022-12-06T12:47:31.945Z,94264.78
2022-12-06T12:50:13.836Z,94274.13
2022-12-06T12:52:42.397Z,94268.00
2022-12-06T12:55:30.382Z,94267.56
2022-12-06T12:57:59.305Z,94267.34
2022-12-06T13:00:35.247Z,94269.97
2022-12-06T13:03:18.042Z,94270.31
2022-12-06T13:05:52.847Z,94269.09
2022-12-06T13:08:26.918Z,94265.66
2022-12-06T13:10:59.356Z,94267.34
2022-12-06T13:13:49.808Z,94261.16
2022-12-06T13:16:25.512Z,94264.13
2022-12-06T13:18:56.087Z,94255.50
2022-12-06T13:21:27.836Z,94261.81
2022-12-06T13:24:13.578Z,94254.53
2022-12-06T13:26:45.747Z,94251.72
2022-12-06T13:29:27.551Z,94251.66
2022-12-06T13:31:58.160Z,94246.88
2022-12-06T13:34:33.373Z,94240.41
2022-12-06T13:37:03.259Z,94242.50
2022-12-06T13:39:32.910Z,94241.56
2022-12-06T13:42:20.643Z,94239.81
2022-12-06T13:44:50.265Z,94240.41
2022-12-06T13:47:28.956Z,94239.59
2022-12-06T13:49:59.728Z,94231.81
2022-12-06T13:52:48.138Z,94235.84
2022-12-06T13:55:27.016Z,94235.19
2022-12-06T13:57:59.533Z,94232.69
2022-12-06T14:00:29.197Z,94239.78
2022-12-06T14:02:57.609Z,94244.72
2022-12-06T14:08:35.075Z,94237.31
2022-12-06T14:11:26.068Z,94236.44
2022-12-06T14:13:55.401Z,94234.03
2022-12-06T14:16:46.821Z,94242.88
2022-12-06T14:19:17.528Z,94237.09
2022-12-06T14:21:55.884Z,94237.16
2022-12-06T14:24:28.830Z,94231.59
2022-12-06T14:27:02.370Z,94227.13
2022-12-06T14:29:28.937Z,94233.56
2022-12-06T14:31:55.542Z,94235.31
2022-12-06T14:34:30.630Z,94238.78
2022-12-06T14:36:58.763Z,94243.75
2022-12-06T14:39:29.191Z,94242.34
2022-12-06T14:42:17.486Z,94240.16
2022-12-06T14:44:58.716Z,94235.41
2022-12-06T14:47:28.645Z,94237.81
2022-12-06T14:50:16.414Z,94239.75
2022-12-06T14:52:56.725Z,94245.41
2022-12-06T14:55:24.162Z,94249.38
2022-12-06T14:57:56.335Z,94241.28
2022-12-06T15:00:35.925Z,94245.59
2022-12-06T15:03:09.019Z,94245.22
2022-12-06T15:05:41.509Z,94241.63
2022-12-06T15:08:26.719Z,94251.41
2022-12-06T15:11:13.323Z,94239.94
2022-12-06T15:13:40.368Z,94238.91
2022-12-06T15:16:10.038Z,94244.88
2022-12-06T15:19:03.104Z,94239.00
2022-12-06T15:21:29.728Z,94224.69
2022-12-06T15:23:56.623Z,94221.19
2022-12-06T15:26:24.640Z,94220.00
2022-12-06T15:28:51.869Z,94219.28
2022-12-06T15:31:22.203Z,94211.63
2022-12-06T15:33:49.195Z,94211.75
2022-12-06T15:36:22.012Z,94201.84
2022-12-06T15:38:49.047Z,94216.19
2022-12-06T15:41:18.776Z,94200.94
2022-12-06T15:43:46.472Z,94206.59
2022-12-06T15:46:24.045Z,94203.59
2022-12-06T15:48:51.677Z,94204.59
2022-12-06T15:51:21.298Z,94199.78
2022-12-06T15:53:49.270Z,94204.75
2022-12-06T15:56:18.929Z,94202.41
2022-12-06T15:58:47.345Z,94207.44
2022-12-06T16:01:26.339Z,94209.56
2022-12-06T16:03:55.676Z,94213.47
2022-12-06T16:06:24.132Z,94205.22
2022-12-06T16:08:50.821Z,94211.97
2022-12-06T16:11:20.867Z,94199.50
2022-12-06T16:13:47.549Z,94197.06
2022-12-06T16:16:16.525Z,94208.66
2022-12-06T16:18:43.426Z,94195.63
2022-12-06T16:21:19.160Z,94201.44
2022-12-06T16:24:16.482Z,94196.31
2022-12-06T16:26:45.228Z,94202.22
2022-12-06T16:29:19.101Z,94194.13
2022-12-06T16:31:47.157Z,94200.66
2022-12-06T16:34:13.932Z,94203.34
2022-12-06T16:37:02.659Z,94196.53
2022-12-06T16:39:31.127Z,94192.44
2022-12-06T16:41:57.916Z,94198.31
2022-12-06T16:44:24.680Z,94198.78
2022-12-06T16:46:52.046Z,94194.16
2022-12-06T16:52:05.882Z,94197.66
2022-12-06T16:54:32.485Z,94198.78
2022-12-06T16:56:59.134Z,94195.75
2022-12-06T16:59:25.761Z,94208.66
2022-12-06T17:01:54.593Z,94211.91
2022-12-06T17:04:21.836Z,94204.53
2022-12-06T17:06:48.876Z,94202.91
2022-12-06T17:09:15.775Z,94199.88
2022-12-06T17:12:01.190Z,94200.97
2022-12-06T17:14:27.880Z,94212.66
2022-12-06T17:16:55.472Z,94213.22
2022-12-06T17:19:24.601Z,94216.44
2022-12-06T17:21:52.627Z,94219.66
2022-12-06T17:24:20.592Z,94209.78
2022-12-06T17:26:47.803Z,94210.75
2022-12-06T17:29:14.634Z,94211.44
2022-12-06T17:31:42.711Z,94205.44
2022-12-06T17:34:13.594Z,94212.56
2022-12-06T17:36:40.709Z,94213.47
2022-12-06T17:39:08.840Z,94211.00
2022-12-06T17:41:54.748Z,94205.88
2022-12-06T17:44:21.873Z,94196.88
2022-12-06T17:46:48.739Z,94198.66
2022-12-06T17:49:18.426Z,94193.31
2022-12-06T17:51:45.469Z,94188.53
2022-12-06T17:54:13.117Z,94192.06
2022-12-06T17:56:42.021Z,94186.75
2022-12-06T17:59:24.314Z,94198.56
2022-12-06T18:04:38.936Z,94203.00
2022-12-06T18:07:06.097Z,94206.88
2022-12-06T18:09:32.729Z,94200.28
2022-12-06T18:12:01.176Z,94192.19
2022-12-06T18:14:28.523Z,94200.28
2022-12-06T18:16:55.816Z,94195.53
2022-12-06T18:19:23.236Z,94189.22
2022-12-06T18:21:52.223Z,94188.78
2022-12-06T18:24:21.994Z,94189.69
2022-12-06T18:26:49.359Z,94200.25
2022-12-06T18:29:19.972Z,94195.22
2022-12-06T18:31:47.108Z,94191.78
2022-12-06T18:34:14.346Z,94188.34
2022-12-06T18:36:44.206Z,94181.88
2022-12-06T18:39:17.032Z,94183.78
2022-12-06T18:41:44.521Z,94179.22
2022-12-06T18:44:12.005Z,94176.88
2022-12-06T18:46:39.336Z,94176.69
2022-12-06T18:49:07.188Z,94174.47
2022-12-06T18:51:36.053Z,94173.47
2022-12-06T18:54:05.127Z,94180.25
2022-12-06T18:56:33.228Z,94173.03
2022-12-06T18:59:11.640Z,94179.78
2022-12-06T19:01:39.470Z,94187.50
2022-12-06T19:04:08.396Z,94177.34
2022-12-06T19:06:37.662Z,94185.09
2022-12-06T19:09:06.997Z,94184.53
2022-12-06T19:11:36.820Z,94190.00
2022-12-06T19:14:04.671Z,94184.09
2022-12-06T19:16:39.454Z,94195.25
2022-12-06T19:19:15.553Z,94191.00
2022-12-06T19:21:44.077Z,94193.50
2022-12-06T19:24:17.348Z,94187.06
2022-12-06T19:26:44.651Z,94192.94
2022-12-06T19:29:11.837Z,94198.91
2022-12-06T19:31:38.529Z,94193.16
2022-12-06T19:34:05.442Z,94191.66
2022-12-06T19:36:32.590Z,94197.56
2022-12-06T19:39:02.265Z,94198.06
2022-12-06T19:41:29.375Z,94192.28
2022-12-06T19:44:14.689Z,94194.09
2022-12-06T19:46:43.302Z,94180.41
2022-12-06T19:49:11.706Z,94180.25
2022-12-06T19:51:40.488Z,94182.94
2022-12-06T19:54:08.354Z,94165.41
2022-12-06T19:56:35.572Z,94168.31
2022-12-06T19:59:11.253Z,94168.53
2022-12-06T20:01:40.546Z,94169.66
2022-12-06T20:04:07.688Z,94170.66
2022-12-06T20:06:35.128Z,94172.78
2022-12-06T20:09:04.335Z,94160.44
2022-12-06T20:11:49.589Z,94167.19
2022-12-06T20:14:18.235Z,94157.75
2022-12-06T20:16:44.858Z,94151.84
2022-12-06T20:19:12.962Z,94154.31
2022-12-06T20:21:39.572Z,94157.78
2022-12-06T20:24:18.631Z,94163.38
2022-12-06T20:26:53.057Z,94157.69
2022-12-06T20:29:20.632Z,94162.22
2022-12-06T20:31:51.423Z,94164.03
2022-12-06T20:34:19.065Z,94158.16
2022-12-06T20:36:46.074Z,94160.13
2022-12-06T20:39:22.540Z,94154.94
2022-12-06T20:41:50.045Z,94152.03
2022-12-06T20:44:17.938Z,94149.72
2022-12-06T20:46:44.810Z,94154.25
2022-12-06T20:49:11.546Z,94151.06
2022-12-06T20:51:38.121Z,94140.50
2022-12-06T20:54:06.944Z,94137.16
2022-12-06T20:56:37.218Z,94133.50
2022-12-06T20:59:05.032Z,94136.72
2022-12-06T21:01:34.683Z,94133.72
2022-12-06T21:04:01.404Z,94130.50
2022-12-06T21:06:28.074Z,94137.38
2022-12-06T21:08:54.968Z,94132.59
2022-12-06T21:11:24.438Z,94129.06
2022-12-06T21:13:55.467Z,94134.28
2022-12-06T21:16:26.172Z,94126.63
2022-12-06T21:18:59.188Z,94130.72
2022-12-06T21:21:31.030Z,94146.53
2022-12-06T21:24:05.953Z,94134.88
2022-12-06T21:26:32.918Z,94140.34
2022-12-06T21:28:59.767Z,94145.91
2022-12-06T21:31:28.883Z,94147.25
2022-12-06T21:33:56.224Z,94145.03
2022-12-06T21:36:23.447Z,94146.03
2022-12-06T21:38:50.167Z,94149.13
2022-12-06T21:41:17.193Z,94150.22
2022-12-06T21:43:44.351Z,94154.03
2022-12-06T21:46:17.031Z,94153.38
2022-12-06T21:48:44.355Z,94159.03
2022-12-06T21:51:12.559Z,94148.16
2022-12-06T21:53:39.382Z,94139.81
2022-12-06T21:56:11.565Z,94147.03
2022-12-06T21:58:38.228Z,94149.44
2022-12-06T22:01:05.827Z,94152.94
2022-12-06T22:03:32.575Z,94150.72
2022-12-06T22:06:02.825Z,94144.25
2022-12-06T22:08:29.445Z,94137.00
2022-12-06T22:10:56.055Z,94135.13
2022-12-06T22:13:27.652Z,94134.59
2022-12-06T22:15:54.396Z,94139.22
2022-12-06T22:18:21.028Z,94131.16
2022-12-06T22:20:57.306Z,94129.69
2022-12-06T22:23:23.943Z,94125.16
2022-12-06T22:25:50.539Z,94124.94
2022-12-06T22:28:17.564Z,94134.28
2022-12-06T22:30:44.241Z,94133.38
2022-12-06T22:33:10.973Z,94132.78
2022-12-06T22:35:37.639Z,94120.81
2022-12-06T22:38:04.210Z,94114.19
2022-12-06T22:40:30.836Z,94121.84
2022-12-06T22:42:57.485Z,94111.75
2022-12-06T22:45:24.062Z,94114.97
2022-12-06T22:47:50.825Z,94109.28
2022-12-06T22:50:17.652Z,94096.75
2022-12-06T22:52:44.238Z,94101.63
2022-12-06T22:55:10.913Z,94098.19
2022-12-06T22:57:37.524Z,94105.31
2022-12-06T23:00:06.428Z,94103.09
2022-12-06T23:02:33.109Z,94099.88
2022-12-06T23:04:59.737Z,94100.44
2022-12-06T23:07:26.303Z,94107.66
2022-12-06T23:09:52.953Z,94101.22
2022-12-06T23:12:19.558Z,94101.09
2022-12-06T23:14:46.133Z,94107.06
2022-12-06T23:17:12.679Z,94100.88
2022-12-06T23:19:39.306Z,94103.97
2022-12-06T23:22:05.891Z,94096.41
2022-12-06T23:24:32.615Z,94103.31
2022-12-06T23:26:59.224Z,94104.53
2022-12-06T23:29:25.877Z,94091.97
2022-12-06T23:31:52.522Z,94096.09
2022-12-06T23:34:22.590Z,94103.00
2022-12-06T23:36:49.922Z,94103.31
2022-12-06T23:39:16.560Z,94103.88
2022-12-06T23:41:43.350Z,94103.31
2022-12-06T23:44:11.873Z,94100.28
2022-12-06T23:46:40.085Z,94095.31
2022-12-06T23:49:08.345Z,94095.53
2022-12-06T23:51:37.567Z,94094.09
2022-12-06T23:54:07.098Z,94098.66
2022-12-06T23:56:36.988Z,94091.53
2022-12-06T23:59:05.334Z,94101.31
